Time;durP1;ratioP1;P1;durP2;ratioP2;P2;SDS_P1;SDS_P2;PMS_P1;PMS_P2;Temp;Humidity;BMP_temperature;BMP_pressure;BME280_temperature;BME280_humidity;BME280_pressure;Samples;Min_cycle;Max_cycle;Signal;HPM_P1;HPM_P2
2022/07/27 00:00:31;;;;;;;5.43;1.85;;;;;;;14.26;69.26;101950.13;5092261;28;20286;-44
2022/07/27 00:02:56;;;;;;;4.72;2.25;;;;;;;14.21;69.20;101950.47;5081181;28;20037;-45
2022/07/27 00:05:22;;;;;;;8.63;2.35;;;;;;;14.20;69.43;101954.09;5074759;28;20107;-47
2022/07/27 00:07:47;;;;;;;3.03;2.00;;;;;;;14.24;68.93;101944.91;5076789;28;20421;-44
2022/07/27 00:10:13;;;;;;;5.78;2.20;;;;;;;14.20;69.36;101945.25;5074434;28;20494;-45
2022/07/27 00:12:39;;;;;;;3.72;2.10;;;;;;;14.13;69.95;101947.53;5076919;28;20103;-46
2022/07/27 00:15:05;;;;;;;5.50;2.20;;;;;;;14.11;69.78;101948.63;5074524;28;20033;-45
2022/07/27 00:17:30;;;;;;;6.68;2.20;;;;;;;14.07;69.61;101942.63;5082387;28;20110;-47
2022/07/27 00:19:56;;;;;;;5.43;2.22;;;;;;;14.00;69.85;101939.53;5084416;28;20058;-46
2022/07/27 00:22:21;;;;;;;7.80;2.40;;;;;;;14.04;69.98;101953.56;5081702;28;20057;-45
2022/07/27 00:24:47;;;;;;;7.00;2.45;;;;;;;13.97;69.71;101953.16;5080028;28;20266;-46
2022/07/27 00:27:12;;;;;;;4.75;2.28;;;;;;;13.90;70.53;101951.03;5078242;28;20024;-46
2022/07/27 00:29:38;;;;;;;4.90;2.63;;;;;;;13.84;70.96;101949.69;5082563;28;20047;-46
2022/07/27 00:32:03;;;;;;;5.43;2.50;;;;;;;13.80;70.33;101953.53;5077928;28;20139;-46
2022/07/27 00:34:29;;;;;;;5.78;2.45;;;;;;;13.80;70.32;101956.19;5086640;28;20763;-45
2022/07/27 00:36:54;;;;;;;7.47;2.53;;;;;;;13.73;70.63;101946.94;5087291;28;20021;-45
2022/07/27 00:39:19;;;;;;;6.33;2.20;;;;;;;13.69;70.67;101941.81;5079588;28;20365;-46
2022/07/27 00:41:45;;;;;;;6.97;2.80;;;;;;;13.65;70.58;101942.97;5087581;28;20287;-46
2022/07/27 00:44:11;;;;;;;8.40;2.85;;;;;;;13.64;71.32;101948.44;5085426;28;20024;-49
2022/07/27 00:46:36;;;;;;;6.45;3.45;;;;;;;13.58;71.86;101946.22;5075155;28;20024;-44
2022/07/27 00:49:03;;;;;;;5.68;2.95;;;;;;;13.54;71.33;101942.03;5079689;28;20043;-44
2022/07/27 00:51:28;;;;;;;7.30;2.53;;;;;;;13.49;71.16;101943.25;5090959;28;20043;-45
2022/07/27 00:53:54;;;;;;;5.28;2.70;;;;;;;13.48;71.07;101946.88;5090049;28;20056;-47
2022/07/27 00:56:20;;;;;;;7.43;2.55;;;;;;;13.49;71.00;101945.91;5081218;28;20602;-45
2022/07/27 00:58:48;;;;;;;7.13;3.58;;;;;;;13.40;71.73;101946.56;5079174;28;20033;-46
2022/07/27 01:01:15;;;;;;;7.22;3.20;;;;;;;13.36;71.79;101942.41;5087037;28;20082;-44
2022/07/27 01:03:40;;;;;;;7.38;2.50;;;;;;;13.33;71.65;101942.63;5087390;28;20107;-45
2022/07/27 01:06:06;;;;;;;5.78;2.33;;;;;;;13.29;72.13;101943.78;5075780;28;20092;-45
2022/07/27 01:08:32;;;;;;;9.73;2.60;;;;;;;13.28;71.81;101950.91;5084370;28;20035;-45
2022/07/27 01:10:58;;;;;;;7.32;2.63;;;;;;;13.25;71.63;101944.94;5084599;28;20485;-44
2022/07/27 01:13:26;;;;;;;3.90;2.30;;;;;;;13.20;72.27;101945.25;5082042;28;20035;-47
2022/07/27 01:15:52;;;;;;;3.60;2.25;;;;;;;13.19;72.52;101940.91;5089537;28;20032;-45
2022/07/27 01:18:30;;;;;;;6.38;2.50;;;;;;;13.21;72.18;101946.13;5079205;28;20023;-46
2022/07/27 01:20:56;;;;;;;4.03;2.38;;;;;;;13.20;72.28;101941.75;5086871;28;20028;-48
2022/07/27 01:23:23;;;;;;;7.40;2.75;;;;;;;13.11;72.76;101940.59;5076713;28;20040;-44
2022/07/27 01:25:49;;;;;;;4.13;2.45;;;;;;;13.07;72.83;101937.28;5077891;28;20101;-45
2022/07/27 01:28:14;;;;;;;4.95;2.85;;;;;;;13.02;72.37;101947.38;5078747;28;20028;-45
2022/07/27 01:30:39;;;;;;;6.07;3.03;;;;;;;12.96;73.08;101947.84;5075715;28;20077;-46
2022/07/27 01:33:06;;;;;;;6.13;2.60;;;;;;;12.92;73.46;101949.00;5087146;28;20031;-45
2022/07/27 01:35:32;;;;;;;4.55;2.47;;;;;;;12.87;73.81;101952.00;5084591;28;20068;-45
2022/07/27 01:37:58;;;;;;;4.18;2.58;;;;;;;12.87;73.92;101938.66;5090530;28;20059;-46
2022/07/27 01:40:23;;;;;;;5.38;2.90;;;;;;;12.83;73.82;101950.47;5090234;28;20036;-45
2022/07/27 01:42:49;;;;;;;5.10;2.85;;;;;;;12.78;73.78;101945.47;5090560;28;20047;-44
2022/07/27 01:45:15;;;;;;;5.38;2.80;;;;;;;12.75;73.98;101950.16;5077886;28;20028;-45
2022/07/27 01:47:40;;;;;;;5.90;2.70;;;;;;;12.71;73.95;101940.66;5083652;28;20044;-45
2022/07/27 01:50:06;;;;;;;3.50;2.50;;;;;;;12.69;74.05;101940.78;5086820;28;20032;-45
2022/07/27 01:52:31;;;;;;;7.18;2.70;;;;;;;12.70;73.89;101937.13;5083161;28;20181;-44
2022/07/27 01:54:56;;;;;;;4.80;2.60;;;;;;;12.69;74.03;101934.56;5080186;28;20537;-47
2022/07/27 01:57:22;;;;;;;3.85;2.58;;;;;;;12.65;73.92;101931.25;5077503;28;20038;-44
2022/07/27 01:59:47;;;;;;;5.28;2.60;;;;;;;12.62;74.16;101938.63;5089510;28;20081;-44
2022/07/27 02:02:14;;;;;;;5.72;3.40;;;;;;;12.57;73.89;101937.13;5078838;28;20025;-45
2022/07/27 02:04:40;;;;;;;6.32;3.10;;;;;;;12.53;74.58;101942.75;5076803;28;20363;-44
2022/07/27 02:07:05;;;;;;;6.43;2.95;;;;;;;12.48;74.80;101939.56;5080279;28;20110;-43
2022/07/27 02:09:31;;;;;;;4.85;2.72;;;;;;;12.45;74.55;101940.59;5089866;28;20035;-44
2022/07/27 02:14:40;;;;;;;7.10;3.00;;;;;;;12.36;74.71;101939.41;5080165;28;20787;-45
2022/07/27 02:17:05;;;;;;;5.57;3.40;;;;;;;12.34;74.72;101935.13;5089472;28;20024;-44
2022/07/27 02:19:30;;;;;;;6.33;2.90;;;;;;;12.29;75.34;101929.25;5076544;28;20647;-45
2022/07/27 02:21:56;;;;;;;9.65;2.78;;;;;;;12.22;75.25;101931.47;5090154;28;20313;-45
2022/07/27 02:24:21;;;;;;;6.50;2.78;;;;;;;12.23;74.65;101921.69;5077632;28;20187;-44
2022/07/27 02:26:46;;;;;;;4.83;2.77;;;;;;;12.19;75.72;101921.03;5090173;28;20035;-44
2022/07/27 02:29:11;;;;;;;6.37;2.70;;;;;;;12.16;75.77;101924.75;5078634;28;20302;-43
2022/07/27 02:31:37;;;;;;;4.05;2.60;;;;;;;12.15;76.11;101927.53;5078821;28;20283;-44
2022/07/27 02:34:02;;;;;;;7.55;2.85;;;;;;;12.16;75.85;101926.56;5079194;28;20019;-46
2022/07/27 02:36:28;;;;;;;5.43;2.85;;;;;;;12.13;75.67;101927.63;5091928;28;20035;-45
2022/07/27 02:38:54;;;;;;;6.22;2.88;;;;;;;12.08;74.88;101924.41;5093708;28;20042;-46
2022/07/27 02:41:19;;;;;;;5.05;2.78;;;;;;;12.06;75.57;101930.78;5090860;28;20024;-47
2022/07/27 02:43:44;;;;;;;7.25;3.15;;;;;;;12.01;76.24;101921.28;5079656;28;20021;-44
2022/07/27 02:46:10;;;;;;;9.93;3.00;;;;;;;11.97;76.16;101922.47;5085709;28;20496;-44
2022/07/27 02:48:35;;;;;;;7.45;2.88;;;;;;;12.00;76.20;101921.38;5085730;28;20271;-44
2022/07/27 02:51:01;;;;;;;5.70;3.00;;;;;;;11.98;76.17;101920.66;5085522;28;20107;-45
2022/07/27 02:53:27;;;;;;;6.00;3.00;;;;;;;11.94;75.74;101924.44;5093167;28;20494;-45
2022/07/27 02:55:52;;;;;;;10.80;3.97;;;;;;;11.94;76.14;101921.78;5083315;28;20112;-49
2022/07/27 02:58:18;;;;;;;6.90;3.20;;;;;;;11.90;76.29;101922.91;5088242;28;20445;-46
2022/07/27 03:00:43;;;;;;;4.97;3.00;;;;;;;11.85;76.40;101921.41;5093854;28;20035;-44
2022/07/27 03:03:08;;;;;;;5.25;2.88;;;;;;;11.87;76.48;101923.97;5091342;28;20705;-46
2022/07/27 03:05:34;;;;;;;4.75;3.05;;;;;;;11.84;75.79;101919.72;5091637;28;20032;-44
2022/07/27 03:07:59;;;;;;;5.15;2.80;;;;;;;11.78;76.73;101924.56;5081021;28;20025;-45
2022/07/27 03:10:25;;;;;;;4.68;3.03;;;;;;;11.77;76.52;101931.69;5080937;28;20035;-46
2022/07/27 03:12:50;;;;;;;5.45;3.25;;;;;;;11.75;76.96;101932.75;5089192;28;20264;-46
2022/07/27 03:15:15;;;;;;;8.00;3.20;;;;;;;11.73;77.06;101932.84;5088049;28;20592;-45
2022/07/27 03:17:41;;;;;;;3.60;2.90;;;;;;;11.70;76.96;101935.69;5078493;28;20029;-44
2022/07/27 03:20:07;;;;;;;6.40;3.42;;;;;;;11.72;77.17;101932.94;5077453;28;20635;-44
2022/07/27 03:22:32;;;;;;;4.05;3.20;;;;;;;11.64;76.32;101936.06;5075177;28;20034;-45
2022/07/27 03:24:58;;;;;;;8.30;3.30;;;;;;;11.62;77.21;101928.22;5076938;28;20111;-45
2022/07/27 03:27:24;;;;;;;7.97;3.03;;;;;;;11.62;76.59;101930.88;5092229;28;20467;-46
2022/07/27 03:29:50;;;;;;;4.22;3.17;;;;;;;11.59;77.01;101930.19;5081736;28;20551;-44
2022/07/27 03:32:15;;;;;;;3.75;2.88;;;;;;;11.58;77.38;101929.34;5077707;28;20036;-46
2022/07/27 03:34:40;;;;;;;9.07;2.90;;;;;;;11.56;77.38;101927.75;5092162;28;20028;-45
2022/07/27 03:37:05;;;;;;;7.05;3.13;;;;;;;11.54;77.32;101929.63;5086147;28;20316;-45
2022/07/27 03:39:30;;;;;;;11.50;3.30;;;;;;;11.51;77.63;101928.03;5084923;28;20433;-48
2022/07/27 03:41:56;;;;;;;5.20;3.13;;;;;;;11.51;77.73;101928.03;5083670;28;20274;-47
2022/07/27 03:44:21;;;;;;;5.60;3.08;;;;;;;11.45;78.11;101929.25;5091448;28;20317;-44
2022/07/27 03:46:46;;;;;;;5.72;3.00;;;;;;;11.45;77.67;101929.25;5078481;28;20028;-47
2022/07/27 03:49:12;;;;;;;4.78;3.15;;;;;;;11.43;78.58;101928.50;5092380;28;20076;-46
2022/07/27 03:51:37;;;;;;;6.00;3.10;;;;;;;11.45;78.60;101931.94;5087035;28;20032;-47
2022/07/27 03:54:02;;;;;;;6.95;3.15;;;;;;;11.45;78.89;101931.94;5078441;28;20388;-44
2022/07/27 03:56:28;;;;;;;7.03;3.53;;;;;;;11.44;78.93;101926.69;5076201;28;20028;-44
2022/07/27 03:58:53;;;;;;;6.25;3.33;;;;;;;11.45;79.52;101926.59;5075450;28;20028;-44
2022/07/27 04:01:18;;;;;;;6.30;3.40;;;;;;;11.50;79.44;101931.66;5077797;28;20115;-45
2022/07/27 04:03:44;;;;;;;6.27;3.30;;;;;;;11.51;79.54;101938.69;5075435;28;20028;-45
2022/07/27 04:06:09;;;;;;;4.80;3.40;;;;;;;11.53;80.07;101934.13;5078167;28;20282;-46
2022/07/27 04:08:34;;;;;;;5.97;3.15;;;;;;;11.55;79.43;101934.03;5074288;28;20028;-44
2022/07/27 04:10:59;;;;;;;6.30;3.42;;;;;;;11.55;79.88;101934.03;5079687;28;20028;-45
2022/07/27 04:13:25;;;;;;;7.00;3.78;;;;;;;11.58;79.92;101931.16;5078576;28;20477;-44
2022/07/27 04:15:50;;;;;;;7.28;3.40;;;;;;;11.57;79.64;101932.94;5077126;28;20029;-45
2022/07/27 04:18:15;;;;;;;4.80;3.63;;;;;;;11.58;79.98;101936.50;5088518;28;20434;-45
2022/07/27 04:20:41;;;;;;;6.40;3.30;;;;;;;11.60;79.74;101935.44;5079465;28;20386;-44
2022/07/27 04:23:06;;;;;;;5.70;3.63;;;;;;;11.63;80.28;101937.06;5084691;28;20466;-44
2022/07/27 04:25:32;;;;;;;7.50;3.78;;;;;;;11.66;79.87;101939.53;5079374;28;20058;-45
2022/07/27 04:27:57;;;;;;;5.13;3.28;;;;;;;11.68;80.49;101934.94;5079582;28;20060;-45
2022/07/27 04:30:23;;;;;;;5.65;3.65;;;;;;;11.74;80.19;101933.69;5085228;28;20056;-45
2022/07/27 04:32:48;;;;;;;7.72;3.88;;;;;;;11.73;80.70;101938.16;5088819;28;20420;-45
2022/07/27 04:35:13;;;;;;;6.10;3.73;;;;;;;11.75;80.66;101943.41;5071424;28;20031;-44
2022/07/27 04:37:38;;;;;;;9.35;3.50;;;;;;;11.77;80.40;101941.47;5086150;28;20355;-45
2022/07/27 04:40:06;;;;;;;7.32;3.83;;;;;;;11.77;80.47;101946.81;5085886;28;20028;-45
2022/07/27 04:42:31;;;;;;;6.20;3.58;;;;;;;11.85;80.57;101949.84;5086284;28;20114;-46
2022/07/27 04:44:58;;;;;;;7.47;3.30;;;;;;;11.87;80.27;101947.91;5090918;28;20124;-45
2022/07/27 04:47:23;;;;;;;5.15;3.25;;;;;;;11.90;80.68;101947.72;5077579;28;20032;-44
2022/07/27 04:49:49;;;;;;;3.60;3.30;;;;;;;11.94;80.35;101954.59;5091582;28;20088;-45
2022/07/27 04:52:14;;;;;;;6.25;3.47;;;;;;;11.96;80.39;101952.69;5090974;28;20020;-46
2022/07/27 04:54:40;;;;;;;5.45;3.40;;;;;;;11.99;80.21;101951.63;5077587;28;20016;-45
2022/07/27 04:57:05;;;;;;;6.70;3.50;;;;;;;12.05;80.00;101951.22;5087011;28;20035;-45
2022/07/27 04:59:30;;;;;;;6.15;3.40;;;;;;;12.06;80.49;101962.72;5087045;28;20036;-45
2022/07/27 05:01:56;;;;;;;8.32;3.85;;;;;;;12.08;80.59;101953.69;5086637;28;20024;-44
2022/07/27 05:04:21;;;;;;;9.90;3.70;;;;;;;12.10;80.86;101961.59;5081458;28;20100;-46
2022/07/27 05:06:46;;;;;;;11.93;3.47;;;;;;;12.18;80.46;101962.78;5084297;28;20274;-46
2022/07/27 05:09:11;;;;;;;9.93;3.77;;;;;;;12.20;80.24;101960.88;5090403;28;20038;-48
2022/07/27 05:11:37;;;;;;;7.53;3.90;;;;;;;12.28;80.06;101963.03;5076719;28;20289;-49
2022/07/27 05:14:02;;;;;;;6.43;4.45;;;;;;;12.32;79.84;101959.25;5065710;28;20028;-45
2022/07/27 05:16:28;;;;;;;7.38;5.15;;;;;;;12.35;79.61;101966.16;5083806;28;20028;-45
2022/07/27 05:18:53;;;;;;;9.27;6.88;;;;;;;12.35;79.99;101960.84;5089248;28;20252;-45
2022/07/27 05:21:18;;;;;;;10.97;7.10;;;;;;;12.39;80.21;101967.69;5083659;28;20032;-44
2022/07/27 05:23:44;;;;;;;14.47;6.90;;;;;;;12.43;79.72;101978.97;5088369;28;20286;-46
2022/07/27 05:26:09;;;;;;;10.25;6.53;;;;;;;12.45;80.42;101982.41;5077229;28;20319;-47
2022/07/27 05:28:34;;;;;;;7.70;4.50;;;;;;;12.51;79.80;101984.66;5082751;28;20107;-44
2022/07/27 05:31:00;;;;;;;9.98;4.20;;;;;;;12.59;80.10;101988.50;5090720;28;20841;-45
2022/07/27 05:33:25;;;;;;;10.13;4.00;;;;;;;12.71;80.08;101984.16;5086239;28;20028;-46
2022/07/27 05:35:50;;;;;;;5.82;3.65;;;;;;;12.81;79.64;101991.56;5087777;28;20111;-45
2022/07/27 05:38:15;;;;;;;9.32;3.60;;;;;;;12.95;79.09;101981.63;5083481;28;20032;-44
2022/07/27 05:40:45;;;;;;;9.57;3.17;;;;;;;13.18;78.67;101981.88;5079988;28;20569;-46
2022/07/27 05:43:10;;;;;;;9.50;3.20;;;;;;;13.34;78.24;101981.69;5085951;28;20511;-44
2022/07/27 05:45:36;;;;;;;6.53;3.00;;;;;;;13.49;78.03;101974.44;5089223;28;20111;-45
2022/07/27 05:48:02;;;;;;;12.77;3.40;;;;;;;13.72;77.70;101972.75;5077195;28;20031;-46
2022/07/27 05:50:27;;;;;;;5.78;2.92;;;;;;;13.85;77.51;101976.25;5081835;28;20111;-47
2022/07/27 05:52:53;;;;;;;7.72;3.47;;;;;;;14.04;76.96;101981.13;5087204;28;20040;-47
2022/07/27 05:55:18;;;;;;;7.63;3.20;;;;;;;14.23;76.35;101982.44;5089021;28;20072;-46
2022/07/27 05:57:43;;;;;;;6.10;2.92;;;;;;;14.47;75.91;101986.91;5086804;28;20021;-45
2022/07/27 06:00:10;;;;;;;6.35;3.20;;;;;;;14.69;74.80;101989.72;5065823;28;20036;-45
2022/07/27 06:02:36;;;;;;;7.80;3.40;;;;;;;14.83;74.39;101991.31;5087556;28;20024;-44
2022/07/27 06:05:02;;;;;;;8.07;3.20;;;;;;;15.05;73.74;101992.34;5090590;28;20115;-44
2022/07/27 06:10:11;;;;;;;6.55;2.90;;;;;;;15.38;71.89;101986.19;5079178;28;20092;-45
2022/07/27 06:12:41;;;;;;;9.50;3.17;;;;;;;15.54;72.10;101989.34;5070724;28;20029;-44
2022/07/27 06:15:09;;;;;;;7.45;3.25;;;;;;;15.69;71.08;101995.31;5087016;28;20044;-47
2022/07/27 06:17:35;;;;;;;5.65;3.17;;;;;;;15.73;71.25;101990.56;5084159;28;20032;-45
2022/07/27 06:20:02;;;;;;;5.95;2.97;;;;;;;16.00;70.50;101989.34;5086449;28;20071;-46
2022/07/27 06:22:27;;;;;;;8.30;2.83;;;;;;;16.15;70.04;101988.06;5080632;28;20475;-45
2022/07/27 06:24:53;;;;;;;6.65;2.60;;;;;;;16.29;69.52;101986.94;5087802;28;20032;-47
2022/07/27 06:27:18;;;;;;;4.82;2.72;;;;;;;16.46;69.06;101991.75;5088729;28;20069;-46
2022/07/27 06:29:44;;;;;;;3.85;2.67;;;;;;;16.52;68.64;101993.09;5090219;28;20029;-46
2022/07/27 06:32:10;;;;;;;5.88;2.40;;;;;;;16.66;68.12;101986.56;5089307;28;20083;-45
2022/07/27 06:34:36;;;;;;;4.35;2.17;;;;;;;16.90;67.89;101997.06;5081698;28;20031;-45
2022/07/27 06:37:01;;;;;;;4.82;2.00;;;;;;;16.95;66.65;101994.84;5088249;28;20032;-48
2022/07/27 06:39:26;;;;;;;4.90;2.20;;;;;;;17.14;65.48;101986.06;5091581;28;20035;-46
2022/07/27 06:41:51;;;;;;;2.97;1.90;;;;;;;17.33;65.36;101987.13;5103620;28;20290;-45
2022/07/27 06:44:17;;;;;;;3.45;1.73;;;;;;;17.60;63.08;101988.38;5105712;28;20286;-47
2022/07/27 06:46:42;;;;;;;5.72;2.00;;;;;;;17.92;62.80;101990.94;5095930;28;20024;-46
2022/07/27 06:49:08;;;;;;;4.35;1.75;;;;;;;18.02;61.07;101989.13;5090673;28;20047;-44
2022/07/27 06:51:33;;;;;;;5.25;1.80;;;;;;;18.19;61.96;101989.44;5088262;28;20060;-46
2022/07/27 06:53:59;;;;;;;6.78;1.70;;;;;;;18.49;60.13;101991.16;5099305;28;20056;-44
2022/07/27 06:56:24;;;;;;;3.90;1.30;;;;;;;18.63;58.16;101989.84;5098858;28;20031;-45
2022/07/27 06:58:50;;;;;;;3.20;1.50;;;;;;;18.82;57.45;101981.78;5103190;28;20024;-45
2022/07/27 07:01:16;;;;;;;6.55;1.40;;;;;;;19.12;59.57;101987.09;5101387;28;20511;-46
2022/07/27 07:03:42;;;;;;;6.60;3.63;;;;;;;19.38;58.63;101987.31;5101269;28;20035;-46
2022/07/27 07:06:07;;;;;;;4.65;1.08;;;;;;;19.77;56.72;101990.72;5101531;28;20028;-47
2022/07/27 07:08:32;;;;;;;5.23;1.67;;;;;;;19.90;55.29;101998.47;5083160;28;20100;-46
2022/07/27 07:10:57;;;;;;;4.80;1.57;;;;;;;20.21;55.62;102000.81;5100060;28;20274;-47
2022/07/27 07:13:23;;;;;;;6.87;1.20;;;;;;;20.45;52.84;102004.75;5089752;28;20336;-45
2022/07/27 07:15:48;;;;;;;4.73;1.17;;;;;;;20.64;51.57;102001.91;5096444;28;20287;-46
2022/07/27 07:18:13;;;;;;;3.20;1.10;;;;;;;20.97;50.37;101998.66;5098728;28;20403;-46
2022/07/27 07:20:39;;;;;;;3.63;1.23;;;;;;;21.03;49.89;102004.25;5101501;28;20300;-47
2022/07/27 07:23:05;;;;;;;4.30;1.23;;;;;;;21.19;50.18;102002.66;5107471;28;20511;-44
2022/07/27 07:25:32;;;;;;;9.02;1.30;;;;;;;21.22;48.55;101996.94;5104483;28;20032;-44
2022/07/27 07:27:57;;;;;;;3.10;1.10;;;;;;;21.37;49.35;102002.59;5098805;28;20093;-45
2022/07/27 07:30:23;;;;;;;7.18;1.30;;;;;;;21.49;49.44;102008.63;5105911;28;20028;-46
2022/07/27 07:32:49;;;;;;;5.05;1.10;;;;;;;21.76;47.51;102000.25;5107922;28;20028;-46
2022/07/27 07:35:14;;;;;;;3.88;1.30;;;;;;;21.82;45.45;102001.50;5094182;28;20047;-48
2022/07/27 07:37:39;;;;;;;7.10;1.10;;;;;;;21.69;45.66;102001.94;5106118;28;20040;-47
2022/07/27 07:40:06;;;;;;;4.50;1.17;;;;;;;21.54;46.16;102007.09;5106700;28;20454;-44
2022/07/27 07:42:31;;;;;;;5.35;1.20;;;;;;;21.34;47.55;102014.56;5102611;28;20402;-47
2022/07/27 07:44:57;;;;;;;3.25;1.02;;;;;;;21.31;46.64;102008.66;5106393;28;20021;-47
2022/07/27 07:47:23;;;;;;;8.07;1.10;;;;;;;21.13;48.11;102011.41;5100241;28;20031;-45
2022/07/27 07:49:49;;;;;;;6.18;1.42;;;;;;;20.89;46.93;102013.75;5101017;28;20028;-44
2022/07/27 07:52:14;;;;;;;3.95;1.10;;;;;;;20.89;48.04;102015.63;5102337;28;20058;-47
2022/07/27 07:54:39;;;;;;;5.22;1.88;;;;;;;20.79;49.72;102010.31;5101897;28;20028;-45
2022/07/27 07:57:04;;;;;;;4.90;1.10;;;;;;;20.67;48.69;102016.97;5117335;28;20020;-48
2022/07/27 07:59:30;;;;;;;6.53;1.10;;;;;;;20.68;49.05;102021.34;5105152;28;20315;-49
2022/07/27 08:01:55;;;;;;;7.93;1.07;;;;;;;20.59;48.54;102017.69;5102494;28;20275;-48
2022/07/27 08:04:20;;;;;;;5.30;1.30;;;;;;;20.59;49.97;102022.25;5109547;28;20294;-52
2022/07/27 08:06:45;;;;;;;4.73;1.10;;;;;;;20.51;51.31;102026.56;5112536;28;20267;-48
2022/07/27 08:09:15;;;;;;;3.30;1.55;;;;;;;20.38;51.13;102022.56;5113796;28;20341;-49
2022/07/27 08:11:41;;;;;;;5.70;1.52;;;;;;;20.27;51.61;102027.19;5112875;28;20035;-48
2022/07/27 08:14:06;;;;;;;7.32;1.50;;;;;;;20.31;52.07;102027.72;5116612;28;20016;-48
2022/07/27 08:16:32;;;;;;;4.47;1.03;;;;;;;20.15;52.06;102034.66;5112092;28;20032;-48
2022/07/27 08:18:57;;;;;;;7.15;1.40;;;;;;;20.14;52.20;102032.09;5110275;28;20343;-48
2022/07/27 08:21:22;;;;;;;3.67;1.10;;;;;;;20.00;51.75;102038.88;5107546;28;20028;-45
2022/07/27 08:23:48;;;;;;;3.33;1.48;;;;;;;19.88;53.11;102037.34;5112150;28;20023;-47
2022/07/27 08:26:13;;;;;;;6.27;1.63;;;;;;;19.84;53.17;102033.28;5112421;28;20032;-48
2022/07/27 08:28:38;;;;;;;3.30;1.00;;;;;;;19.86;53.17;102033.97;5112568;28;20277;-47
2022/07/27 08:31:04;;;;;;;5.13;1.17;;;;;;;19.80;52.89;102029.16;5114326;28;20317;-46
2022/07/27 08:33:29;;;;;;;4.40;1.40;;;;;;;19.82;52.24;102025.31;5116087;28;20050;-47
2022/07/27 08:35:56;;;;;;;4.50;1.00;;;;;;;19.71;51.90;102029.03;5111220;28;20138;-48
2022/07/27 08:38:21;;;;;;;4.03;1.00;;;;;;;19.85;50.51;102021.47;5118089;28;20293;-48
2022/07/27 08:40:48;;;;;;;3.55;1.30;;;;;;;20.13;49.06;102015.06;5114997;28;20020;-47
2022/07/27 08:43:14;;;;;;;2.47;1.10;;;;;;;20.23;48.01;102014.16;5115190;28;20024;-47
2022/07/27 08:45:40;;;;;;;5.45;1.20;;;;;;;20.60;46.19;102021.25;5117137;28;20042;-47
2022/07/27 08:48:05;;;;;;;4.47;1.40;;;;;;;20.57;47.63;102018.84;5098560;28;20016;-47
2022/07/27 08:50:33;;;;;;;3.58;0.85;;;;;;;20.40;43.82;102018.72;5103048;28;20147;-47
2022/07/27 08:53:04;;;;;;;3.47;1.05;;;;;;;20.49;44.65;102016.94;5116721;28;20032;-51
2022/07/27 08:55:32;;;;;;;3.60;0.90;;;;;;;20.38;44.95;102015.31;5117244;28;20020;-47
2022/07/27 08:57:58;;;;;;;3.58;1.20;;;;;;;20.40;44.70;102018.72;5106869;28;20032;-48
2022/07/27 09:00:25;;;;;;;6.13;1.40;;;;;;;20.47;45.08;102027.06;5115373;28;20008;-48
2022/07/27 09:02:50;;;;;;;5.40;1.10;;;;;;;20.55;45.66;102028.97;5107096;28;20023;-48
2022/07/27 09:05:16;;;;;;;4.00;1.08;;;;;;;20.57;45.65;102029.66;5102917;28;20080;-47
2022/07/27 09:07:41;;;;;;;2.90;0.95;;;;;;;20.56;47.87;102038.75;5082418;28;20028;-46
2022/07/27 09:10:07;;;;;;;5.68;1.10;;;;;;;20.49;48.50;102031.28;5089341;28;20032;-46
2022/07/27 09:12:34;;;;;;;5.65;1.58;;;;;;;20.64;48.46;102033.47;5087953;28;20099;-46
2022/07/27 09:15:11;;;;;;;5.28;1.20;;;;;;;20.66;49.56;102032.31;5085630;28;20066;-46
2022/07/27 09:17:39;;;;;;;5.30;1.70;;;;;;;20.57;49.30;102029.66;5088432;28;20104;-46
2022/07/27 09:20:09;;;;;;;3.47;1.40;;;;;;;20.57;48.83;102032.34;5090125;28;20019;-49
2022/07/27 09:22:38;;;;;;;4.05;1.25;;;;;;;20.69;48.69;102033.84;5086568;28;20060;-46
2022/07/27 09:25:04;;;;;;;6.28;1.55;;;;;;;20.62;47.77;102036.28;5088633;28;20572;-45
2022/07/27 09:27:30;;;;;;;4.55;1.45;;;;;;;20.59;48.36;102035.75;5083956;28;20032;-49
2022/07/27 09:30:07;;;;;;;4.85;1.23;;;;;;;20.63;49.61;102037.16;5089848;28;20036;-47
2022/07/27 09:32:33;;;;;;;3.78;1.48;;;;;;;20.61;50.76;102047.25;5083863;28;20394;-45
2022/07/27 09:35:20;;;;;;;4.15;1.20;;;;;;;20.65;48.88;102044.13;5079984;28;20055;-48
2022/07/27 09:37:46;;;;;;;8.32;1.40;;;;;;;20.75;48.33;102037.78;5089642;28;20390;-47
2022/07/27 09:40:14;;;;;;;7.05;1.38;;;;;;;20.72;48.52;102035.38;5087123;28;20032;-45
2022/07/27 09:42:40;;;;;;;3.05;1.08;;;;;;;20.64;49.04;102034.31;5086743;28;20035;-46
2022/07/27 09:45:34;;;;;;;4.07;1.45;;;;;;;20.78;49.71;102037.47;5089669;28;20040;-45
2022/07/27 09:48:14;;;;;;;7.00;1.42;;;;;;;20.67;49.13;102035.88;5080943;28;20538;-46
2022/07/27 09:50:45;;;;;;;5.35;1.60;;;;;;;20.68;48.66;102032.16;5084606;28;20028;-44
2022/07/27 09:53:31;;;;;;;3.25;1.48;;;;;;;20.79;49.42;102029.22;5090295;28;20497;-45
2022/07/27 09:56:10;;;;;;;5.80;2.75;;;;;;;20.59;49.60;102027.66;5088673;28;20036;-47
2022/07/27 09:58:50;;;;;;;5.00;1.42;;;;;;;20.63;49.43;102035.34;5080520;28;20116;-46
2022/07/27 10:01:24;;;;;;;6.07;1.40;;;;;;;20.55;49.19;102035.22;5084838;28;20032;-46
2022/07/27 10:03:53;;;;;;;3.80;1.15;;;;;;;20.55;50.07;102039.75;5080622;28;20395;-49
2022/07/27 10:06:18;;;;;;;4.82;1.70;;;;;;;20.56;49.80;102036.91;5086706;28;20097;-48
2022/07/27 10:08:45;;;;;;;7.95;2.05;;;;;;;20.60;49.75;102040.13;5076644;28;20379;-47
2022/07/27 10:11:12;;;;;;;4.72;1.80;;;;;;;20.64;48.36;102042.41;5090329;28;20028;-47
2022/07/27 10:13:38;;;;;;;5.18;1.27;;;;;;;20.73;48.22;102037.94;5086067;28;20036;-48
2022/07/27 10:16:06;;;;;;;2.83;1.38;;;;;;;20.82;49.42;102031.59;5087729;28;20024;-44
2022/07/27 10:18:43;;;;;;;5.50;1.40;;;;;;;20.84;48.31;102035.00;5089459;28;20040;-44
2022/07/27 10:21:09;;;;;;;3.17;1.25;;;;;;;20.99;48.19;102029.88;5086686;28;20047;-44
2022/07/27 10:23:37;;;;;;;5.97;1.65;;;;;;;21.03;47.35;102028.56;5090367;28;20031;-44
2022/07/27 10:26:19;;;;;;;5.55;1.42;;;;;;;21.16;48.32;102025.44;5089140;28;20083;-44
2022/07/27 10:28:55;;;;;;;3.33;1.00;;;;;;;21.52;48.65;102022.66;5088396;28;20032;-46
2022/07/27 10:31:32;;;;;;;5.60;1.55;;;;;;;21.96;45.09;102014.34;5093221;28;20044;-46
2022/07/27 10:33:59;;;;;;;6.35;1.25;;;;;;;22.49;44.13;102009.59;5091924;28;20024;-44
2022/07/27 10:36:30;;;;;;;3.25;0.90;;;;;;;23.00;43.60;102009.44;5092664;28;20024;-44
2022/07/27 10:38:58;;;;;;;3.70;1.13;;;;;;;22.91;42.31;102008.59;5088828;28;20120;-47
2022/07/27 10:41:28;;;;;;;4.17;1.20;;;;;;;23.01;41.06;102004.84;5091921;28;20035;-45
2022/07/27 10:44:21;;;;;;;3.67;1.08;;;;;;;23.01;41.14;102002.97;5088927;28;20289;-45
2022/07/27 10:46:50;;;;;;;5.97;1.27;;;;;;;22.87;39.10;102003.69;5087844;28;20065;-44
2022/07/27 10:49:36;;;;;;;4.20;1.23;;;;;;;22.80;41.55;102003.53;5092454;28;20441;-45
2022/07/27 10:52:03;;;;;;;3.30;1.10;;;;;;;22.58;42.87;102006.91;5081879;28;20047;-45
2022/07/27 10:54:38;;;;;;;4.45;1.40;;;;;;;22.58;44.05;101998.78;5086154;28;20389;-44
2022/07/27 10:57:06;;;;;;;6.95;1.23;;;;;;;22.44;43.78;102000.31;5096484;28;20377;-45
2022/07/27 10:59:37;;;;;;;6.88;1.30;;;;;;;22.50;44.43;101994.22;5096478;28;20020;-45
2022/07/27 11:02:04;;;;;;;5.05;1.08;;;;;;;22.39;43.93;101995.38;5091325;28;20027;-44
2022/07/27 11:04:31;;;;;;;2.70;1.20;;;;;;;22.26;42.91;101987.72;5095290;28;20062;-47
2022/07/27 11:06:59;;;;;;;3.17;1.00;;;;;;;22.06;42.85;101989.88;5088479;28;20032;-44
2022/07/27 11:09:38;;;;;;;1.85;1.10;;;;;;;22.15;43.52;101993.47;5094468;28;20446;-44
2022/07/27 11:12:05;;;;;;;4.22;1.50;;;;;;;22.02;42.88;101998.50;5099357;28;20028;-44
2022/07/27 11:14:30;;;;;;;5.45;1.30;;;;;;;21.99;43.26;101994.25;5103562;28;20114;-44
2022/07/27 11:16:56;;;;;;;26.52;2.80;;;;;;;21.95;42.97;101998.31;5100232;28;20512;-44
2022/07/27 11:19:22;;;;;;;2.58;0.98;;;;;;;21.83;43.51;102003.16;5104108;28;20128;-45
2022/07/27 11:21:48;;;;;;;9.20;1.55;;;;;;;21.95;43.54;102003.72;5104412;28;20047;-46
2022/07/27 11:24:18;;;;;;;7.38;1.30;;;;;;;21.97;42.99;101997.13;5100384;28;20028;-44
2022/07/27 11:26:50;;;;;;;3.92;1.00;;;;;;;22.17;43.86;101994.97;5098500;28;20028;-44